Time;durP1;ratioP1;P1;durP2;ratioP2;P2;SDS_P1;SDS_P2;PMS_P1;PMS_P2;Temp;Humidity;BMP_temperature;BMP_pressure;BME280_temperature;BME280_humidity;BME280_pressure;Samples;Min_cycle;Max_cycle;Signal;HPM_P1;HPM_P2
2023/03/17 00:04:01;;;;;;;20.60;9.90;;;;;;;-1.12;76.01;101196.45;104563;1267;69395;-62
2023/03/17 00:07:50;;;;;;;36.00;14.50;;;;;;;-1.04;76.08;101212.42;104304;1271;69308;-62
2023/03/17 00:11:39;;;;;;;24.30;10.80;;;;;;;-0.95;76.22;101222.40;104279;1268;72549;-64
2023/03/17 00:15:28;;;;;;;23.40;10.90;;;;;;;-1.01;76.26;101218.86;104141;1273;82547;-63
2023/03/17 00:19:17;;;;;;;29.30;13.60;;;;;;;-0.98;76.65;101202.44;104375;1272;73272;-63
2023/03/17 00:23:04;;;;;;;;;;;;;;;;;;;;;
2023/03/17 00:30:45;;;;;;;34.50;14.40;;;;;;;-0.82;77.21;101178.09;104096;1268;74206;-62
2023/03/17 00:34:34;;;;;;;31.50;14.20;;;;;;;-0.79;77.46;101171.10;104567;1267;81394;-61
2023/03/17 00:42:02;;;;;;;22.20;9.80;;;;;;;-0.66;77.47;101157.15;104586;1267;69254;-62
2023/03/17 00:45:51;;;;;;;17.80;9.20;;;;;;;-0.62;77.50;101158.27;104894;1264;69232;-61
2023/03/17 00:49:40;;;;;;;20.90;9.30;;;;;;;-0.51;77.41;101155.41;104826;1264;71038;-64
2023/03/17 00:53:29;;;;;;;24.60;10.80;;;;;;;-0.33;77.44;101145.27;104779;1264;83059;-64
2023/03/17 00:57:18;;;;;;;26.30;10.80;;;;;;;-0.28;77.34;101131.64;104739;1263;72778;-66
2023/03/17 01:04:59;;;;;;;20.10;9.20;;;;;;;-0.17;77.60;101118.61;104918;1264;69303;-64
2023/03/17 01:08:55;;;;;;;32.40;12.20;;;;;;;-0.09;77.44;101119.09;104987;1258;74280;-61
2023/03/17 01:12:44;;;;;;;21.10;10.20;;;;;;;-0.06;77.17;101124.83;104873;1259;83909;-64
2023/03/17 01:16:26;;;;;;;;;;;;;;;;;;;;;
2023/03/17 01:20:17;;;;;;;23.70;11.00;;;;;;;-0.01;76.90;101113.75;104815;1258;69303;-64
2023/03/17 01:24:07;;;;;;;17.00;8.40;;;;;;;-0.07;76.78;101106.08;104892;1260;69203;-64
2023/03/17 01:31:45;;;;;;;15.80;7.20;;;;;;;0.15;76.72;101106.11;104417;1270;83459;-64
2023/03/17 01:39:15;;;;;;;13.80;6.50;;;;;;;0.31;76.16;101100.70;104524;1265;69607;-64
2023/03/17 01:42:54;;;;;;;;;;;;;;;;;;;;;
2023/03/17 01:50:36;;;;;;;19.50;7.50;;;;;;;0.37;76.22;101075.02;104521;1267;82422;-63
2023/03/17 01:54:18;;;;;;;15.60;6.90;;;;;;;0.41;75.74;101068.52;104588;1267;74939;-64
2023/03/17 01:58:10;;;;;;;16.60;7.50;;;;;;;0.49;74.85;101059.20;104508;1270;69314;-63
2023/03/17 02:05:41;;;;;;;17.80;7.20;;;;;;;0.74;73.93;101054.55;104671;1264;73008;-66
2023/03/17 02:09:30;;;;;;;18.50;7.50;;;;;;;0.81;73.44;101057.59;104623;1265;82563;-63
2023/03/17 02:13:20;;;;;;;23.10;8.50;;;;;;;0.89;73.02;101057.52;104626;1267;73888;-62
2023/03/17 02:17:06;;;;;;;;;;;;;;;;;;;;;
2023/03/17 02:28:44;;;;;;;15.50;8.00;;;;;;;0.99;71.88;101043.35;103244;1284;83622;-63
2023/03/17 02:32:31;;;;;;;16.80;7.70;;;;;;;1.02;71.80;101041.50;103080;1283;74759;-63
2023/03/17 02:36:00;;;;;;;;;;;;;;;1.05;71.49;101033.46;103271;1280;70785;-62
2023/03/17 02:39:50;;;;;;;19.80;8.30;;;;;;;1.07;71.27;101038.29;103579;1277;69243;-63
2023/03/17 02:43:40;;;;;;;14.30;6.70;;;;;;;1.10;71.19;101029.04;103724;1276;73531;-63
2023/03/17 02:54:58;;;;;;;;;;;;;;;;;;;;;
2023/03/17 03:17:56;;;;;;;17.40;8.60;;;;;;;1.41;69.81;101015.77;102438;1286;69159;-63
2023/03/17 03:25:27;;;;;;;;;;;;;;;;;;;;;
2023/03/17 03:29:18;;;;;;;15.90;8.40;;;;;;;1.41;69.51;101019.55;104428;1269;69132;-64
2023/03/17 03:33:07;;;;;;;18.60;8.30;;;;;;;1.38;69.27;101017.13;104475;1268;69185;-64
2023/03/17 03:36:56;;;;;;;17.10;8.30;;;;;;;1.35;69.24;101013.64;104043;1273;71579;-63
2023/03/17 03:40:46;;;;;;;19.30;8.90;;;;;;;1.31;69.08;101011.55;100381;1270;82990;-62
2023/03/17 03:44:34;;;;;;;18.90;8.30;;;;;;;1.29;68.99;101011.16;104350;1276;69442;-65
2023/03/17 03:48:23;;;;;;;19.10;8.70;;;;;;;1.25;68.96;101007.18;104199;1273;69585;-62
2023/03/17 03:52:04;;;;;;;;;;;;;;;;;;;;;
2023/03/17 03:56:10;;;;;;;;;;;;;;;;;;;;;
2023/03/17 03:59:49;;;;;;;39.70;18.50;;;;;;;1.13;68.83;101022.88;104667;1264;75162;-68
2023/03/17 04:03:38;;;;;;;27.00;12.10;;;;;;;1.07;68.90;101023.48;104510;1263;69241;-68
2023/03/17 04:07:25;;;;;;;;;;;;;;;;;;;;;
2023/03/17 04:11:04;;;;;;;;;;;;;;;;;;;;;
2023/03/17 04:18:45;;;;;;;15.10;7.60;;;;;;;0.92;68.80;100987.88;104984;1262;73884;-68
2023/03/17 04:22:33;;;;;;;15.70;7.20;;;;;;;0.91;68.81;100990.61;105016;1260;69115;-70
2023/03/17 04:26:23;;;;;;;15.20;6.90;;;;;;;0.91;68.72;100989.06;105133;1264;69211;-68
2023/03/17 04:34:01;;;;;;;17.60;7.80;;;;;;;0.97;68.73;101000.48;105016;1263;82523;-69
2023/03/17 04:37:50;;;;;;;24.60;7.70;;;;;;;1.03;68.43;101000.55;104945;1264;74366;-63
2023/03/17 04:41:22;;;;;;;18.30;6.90;;;;;;;1.08;68.34;100989.42;105082;1262;69239;-63
2023/03/17 04:44:33;;;;;;;14.80;7.60;;;;;;;1.15;68.26;100975.89;105091;1262;69224;-59
2023/03/17 04:47:59;;;;;;;16.40;6.70;;;;;;;1.19;68.08;100961.66;105159;1262;72301;-60
2023/03/17 04:50:46;;;;;;;17.90;7.60;;;;;;;1.23;68.26;100960.33;105130;1263;83493;-61
2023/03/17 04:53:33;;;;;;;17.80;7.70;;;;;;;1.28;68.07;100962.60;108328;1257;72772;-62
2023/03/17 04:56:38;;;;;;;13.90;6.70;;;;;;;1.31;67.96;100961.27;105076;1263;69229;-59
2023/03/17 05:00:04;;;;;;;;;;;;;;;;;;;;;
2023/03/17 05:03:00;;;;;;;16.30;6.80;;;;;;;1.38;67.73;100960.98;105004;1262;73307;-61
2023/03/17 05:06:16;;;;;;;13.80;6.30;;;;;;;1.41;67.76;100972.89;105180;1261;83508;-61
2023/03/17 05:09:26;;;;;;;;;;;;;;;;;;;;;
2023/03/17 05:12:27;;;;;;;17.50;7.60;;;;;;;1.42;67.41;100963.77;105271;1260;69649;-61
2023/03/17 05:16:00;;;;;;;14.00;7.10;;;;;;;1.41;67.33;100964.63;105268;1258;69154;-61
2023/03/17 05:19:40;;;;;;;23.30;7.20;;;;;;;1.38;67.09;100961.16;105245;1260;73636;-60
2023/03/17 05:22:46;;;;;;;15.40;6.60;;;;;;;1.36;67.00;100972.16;104777;1267;83169;-61
2023/03/17 05:25:54;;;;;;;16.60;6.80;;;;;;;1.36;67.20;100968.71;104938;1263;73708;-61
2023/03/17 05:28:44;;;;;;;13.90;6.60;;;;;;;1.34;66.99;100962.16;104789;1267;69371;-60
2023/03/17 05:31:41;;;;;;;13.10;6.30;;;;;;;1.33;67.01;100959.22;104837;1264;69249;-60
2023/03/17 05:34:36;;;;;;;14.30;6.70;;;;;;;1.35;67.04;100961.63;104820;1266;73241;-55
2023/03/17 05:37:58;;;;;;;14.40;6.30;;;;;;;1.37;67.00;100962.52;104786;1266;83564;-56
2023/03/17 05:41:08;;;;;;;13.00;6.10;;;;;;;1.39;67.05;100960.15;104755;1267;73310;-57
2023/03/17 05:44:08;;;;;;;16.60;5.50;;;;;;;1.44;67.05;100962.77;104770;1264;69240;-61
2023/03/17 05:47:24;;;;;;;;;;;;;;;;;;;;;
2023/03/17 05:50:31;;;;;;;15.70;6.00;;;;;;;1.58;66.76;100968.22;104813;1266;73650;-62
2023/03/17 05:53:30;;;;;;;;;;;;;;;;;;;;;
2023/03/17 05:56:45;;;;;;;13.30;5.30;;;;;;;1.74;66.75;100973.02;105101;1257;73680;-62
2023/03/17 05:59:50;;;;;;;;;;;;;;;;;;;;;
2023/03/17 06:02:44;;;;;;;11.70;5.20;;;;;;;1.98;66.52;100963.55;105205;1257;69282;-64
2023/03/17 06:05:57;;;;;;;12.70;4.80;;;;;;;2.11;66.44;100962.09;105205;1257;73142;-65
2023/03/17 06:09:20;;;;;;;17.60;5.90;;;;;;;2.27;66.45;100956.84;105124;1260;82604;-63
2023/03/17 06:12:24;;;;;;;;;;;;;;;;;;;;;
2023/03/17 06:15:30;;;;;;;;;;;;;;;;;;;;;
2023/03/17 06:18:48;;;;;;;11.20;5.10;;;;;;;2.67;66.06;100949.80;105153;1258;69154;-63
2023/03/17 06:22:15;;;;;;;10.90;5.00;;;;;;;2.81;65.91;100945.36;105192;1258;73190;-63
2023/03/17 06:25:10;;;;;;;9.60;4.70;;;;;;;2.93;65.42;100938.84;105319;1257;82310;-62
2023/03/17 06:27:56;;;;;;;12.70;5.00;;;;;;;3.03;65.22;100937.14;105277;1260;73801;-64
2023/03/17 06:30:48;;;;;;;;;;;;;;;;;;;;;
2023/03/17 06:33:55;;;;;;;10.90;5.10;;;;;;;3.21;64.76;100938.90;105269;1260;69201;-64
2023/03/17 06:36:45;;;;;;;11.00;4.70;;;;;;;3.30;64.22;100938.58;105180;1257;73301;-65
2023/03/17 06:40:02;;;;;;;13.70;4.60;;;;;;;3.38;63.85;100942.73;105202;1263;84010;-61
2023/03/17 06:43:20;;;;;;;9.40;4.50;;;;;;;3.46;63.67;100945.85;105187;1257;73866;-62
2023/03/17 06:46:31;;;;;;;9.40;4.80;;;;;;;3.54;63.53;100944.30;105158;1257;70403;-65
2023/03/17 06:49:32;;;;;;;10.30;4.60;;;;;;;3.59;63.36;100942.23;105148;1257;69194;-61
2023/03/17 06:52:23;;;;;;;9.20;4.50;;;;;;;3.64;63.17;100944.99;105155;1260;73265;-61
2023/03/17 06:55:31;;;;;;;11.20;4.20;;;;;;;3.69;63.12;100939.98;105103;1261;82542;-58
2023/03/17 06:58:28;;;;;;;11.80;5.30;;;;;;;3.74;62.79;100939.28;105220;1258;73779;-59
2023/03/17 07:04:41;;;;;;;;;;;;;;;;;;;;;
2023/03/17 07:07:48;;;;;;;9.60;3.70;;;;;;;3.99;62.39;100942.20;105217;1257;73273;-60
2023/03/17 07:10:37;;;;;;;10.30;4.40;;;;;;;4.11;62.31;100943.91;105352;1258;83404;-60
2023/03/17 07:13:37;;;;;;;10.00;4.50;;;;;;;4.24;62.10;100940.77;105226;1260;74457;-60
2023/03/17 07:16:28;;;;;;;9.70;4.40;;;;;;;4.38;61.81;100940.91;105343;1260;69173;-60
2023/03/17 07:19:21;;;;;;;8.50;4.40;;;;;;;4.49;61.67;100942.95;105241;1261;69147;-59
2023/03/17 07:22:29;;;;;;;8.50;4.10;;;;;;;4.63;61.46;100943.24;105267;1258;72217;-60
2023/03/17 07:25:35;;;;;;;10.40;4.50;;;;;;;4.80;61.64;100939.54;105181;1260;83487;-59
2023/03/17 07:28:41;;;;;;;7.80;3.80;;;;;;;4.94;61.10;100936.70;105260;1261;72879;-59
2023/03/17 07:32:12;;;;;;;6.70;3.40;;;;;;;5.09;60.68;100941.98;105157;1257;69492;-62
2023/03/17 07:35:16;;;;;;;9.70;3.50;;;;;;;5.20;60.00;100940.86;105137;1260;69157;-62
2023/03/17 07:38:42;;;;;;;9.80;3.80;;;;;;;5.31;59.96;100932.82;105106;1257;73285;-62
2023/03/17 07:42:14;;;;;;;8.60;3.70;;;;;;;5.45;59.78;100927.54;105224;1261;83534;-63
2023/03/17 07:45:38;;;;;;;;;;;;;;;;;;;;;
2023/03/17 07:49:07;;;;;;;;;;;;;;;;;;;;;
2023/03/17 07:52:41;;;;;;;9.80;4.00;;;;;;;5.90;58.38;100918.48;105061;1260;69195;-61
2023/03/17 07:55:49;;;;;;;9.40;4.20;;;;;;;6.05;58.15;100913.52;105170;1257;74642;-62
2023/03/17 07:59:00;;;;;;;7.90;4.20;;;;;;;6.20;57.93;100899.30;105111;1260;83384;-62
2023/03/17 08:01:59;;;;;;;11.00;4.80;;;;;;;6.33;57.57;100896.02;105044;1257;74081;-63
2023/03/17 08:05:13;;;;;;;;;;;;;;;6.42;57.24;100901.64;105127;1257;69093;-64
2023/03/17 08:08:26;;;;;;;9.10;4.20;;;;;;;6.51;56.32;100903.96;105109;1257;69285;-62
2023/03/17 08:11:30;;;;;;;13.00;6.00;;;;;;;6.52;55.92;100893.70;105081;1260;72262;-60
2023/03/17 08:14:24;;;;;;;10.20;5.00;;;;;;;6.61;56.21;100888.57;105080;1257;83534;-64
2023/03/17 08:17:30;;;;;;;8.00;4.20;;;;;;;6.75;56.11;100896.54;105085;1257;72664;-63
2023/03/17 08:20:24;;;;;;;7.80;4.10;;;;;;;6.84;55.64;100900.24;105052;1260;69273;-61
2023/03/17 08:23:25;;;;;;;10.10;4.90;;;;;;;6.87;55.04;100887.52;105133;1257;69266;-62
2023/03/17 08:26:21;;;;;;;10.30;4.70;;;;;;;6.98;55.15;100889.80;105172;1258;73040;-61
2023/03/17 08:29:06;;;;;;;11.50;4.80;;;;;;;7.13;55.25;100894.96;105151;1257;82613;-64
2023/03/17 08:32:11;;;;;;;8.30;4.40;;;;;;;7.24;54.85;100903.48;105118;1257;73286;-62
2023/03/17 08:35:30;;;;;;;11.90;5.00;;;;;;;7.24;54.32;100910.43;105125;1260;69195;-61
2023/03/17 08:38:26;;;;;;;13.90;5.00;;;;;;;7.32;54.02;100916.05;105165;1257;69197;-63
2023/03/17 08:41:19;;;;;;;13.20;5.30;;;;;;;7.43;54.20;100918.83;105115;1261;72854;-62
2023/03/17 08:44:13;;;;;;;12.90;6.10;;;;;;;7.55;54.35;100912.90;105190;1260;83465;-63
2023/03/17 08:47:11;;;;;;;11.60;5.30;;;;;;;7.67;53.93;100905.23;105071;1257;73378;-62
2023/03/17 08:49:57;;;;;;;14.60;5.60;;;;;;;7.82;53.57;100911.23;105125;1260;69689;-63
2023/03/17 08:52:59;;;;;;;11.60;5.20;;;;;;;7.92;53.31;100912.11;105149;1260;69179;-64
2023/03/17 08:55:50;;;;;;;18.50;6.70;;;;;;;7.98;53.22;100916.69;105142;1257;74499;-62
2023/03/17 08:58:43;;;;;;;14.40;6.40;;;;;;;8.05;53.26;100921.26;105103;1260;83316;-65
2023/03/17 09:01:27;;;;;;;11.80;5.20;;;;;;;8.17;52.94;100921.04;105111;1258;73661;-62
2023/03/17 09:04:21;;;;;;;14.80;7.00;;;;;;;8.22;52.62;100922.69;105147;1257;69175;-63
2023/03/17 09:07:12;;;;;;;17.40;8.40;;;;;;;8.24;52.45;100925.26;105121;1260;69637;-65
2023/03/17 09:10:05;;;;;;;14.80;6.90;;;;;;;8.32;52.43;100914.48;105127;1260;73038;-65
2023/03/17 09:12:50;;;;;;;15.60;6.70;;;;;;;8.39;52.43;100912.11;105134;1260;83514;-60
2023/03/17 09:15:43;;;;;;;16.80;7.60;;;;;;;8.44;52.21;100897.56;105128;1257;73759;-60
2023/03/17 09:18:31;;;;;;;13.80;6.30;;;;;;;8.51;52.02;100878.61;105085;1256;69255;-61
2023/03/17 09:21:21;;;;;;;11.90;5.80;;;;;;;8.52;51.78;100888.16;105140;1257;69189;-60
2023/03/17 09:24:12;;;;;;;9.70;5.50;;;;;;;8.54;51.70;100899.45;105138;1257;72166;-60
2023/03/17 09:26:58;;;;;;;11.20;5.70;;;;;;;8.60;51.81;100892.37;105197;1260;82152;-58
2023/03/17 09:29:53;;;;;;;10.10;6.10;;;;;;;8.65;51.36;100895.57;105145;1258;73914;-60
2023/03/17 09:32:31;;;;;;;11.10;5.70;;;;;;;8.74;51.62;100893.45;105125;1256;69218;-60
2023/03/17 09:35:25;;;;;;;11.00;6.00;;;;;;;8.88;51.09;100883.90;105343;1257;69215;-59
2023/03/17 09:38:17;;;;;;;13.70;6.20;;;;;;;9.05;51.30;100878.30;105385;1253;73967;-59
2023/03/17 09:41:40;;;;;;;15.00;5.80;;;;;;;9.17;50.77;100887.44;105320;1257;83589;-57
2023/03/17 09:44:37;;;;;;;11.70;5.90;;;;;;;9.21;50.50;100884.02;105348;1254;73864;-59
2023/03/17 09:47:27;;;;;;;11.60;6.10;;;;;;;9.39;50.53;100873.13;105490;1257;69263;-61
2023/03/17 09:50:13;;;;;;;11.30;5.70;;;;;;;9.68;50.54;100870.65;105449;1254;69528;-61
2023/03/17 09:53:00;;;;;;;9.40;5.10;;;;;;;9.90;50.10;100866.59;105469;1257;74051;-57
2023/03/17 09:55:36;;;;;;;8.50;5.20;;;;;;;10.10;49.75;100870.75;105328;1259;83311;-59
2023/03/17 09:58:24;;;;;;;8.50;5.20;;;;;;;10.20;49.14;100879.91;105351;1255;73096;-60
2023/03/17 10:01:05;;;;;;;10.90;5.70;;;;;;;10.21;48.86;100868.20;105427;1253;69196;-59
2023/03/17 10:03:42;;;;;;;9.30;5.30;;;;;;;10.26;48.64;100853.38;105423;1259;69212;-59
2023/03/17 10:06:50;;;;;;;9.10;5.30;;;;;;;10.39;48.82;100853.04;105334;1258;74414;-61
2023/03/17 10:09:25;;;;;;;8.70;5.40;;;;;;;10.55;48.33;100850.83;104802;1267;83662;-60
2023/03/17 10:12:15;;;;;;;10.90;5.70;;;;;;;10.70;48.22;100842.15;104785;1267;73742;-60
2023/03/17 10:15:27;;;;;;;11.90;5.40;;;;;;;10.93;47.98;100841.45;104902;1262;69214;-61
2023/03/17 10:17:59;;;;;;;11.70;6.00;;;;;;;11.06;47.59;100841.58;104779;1266;69207;-61
2023/03/17 10:20:35;;;;;;;10.00;5.60;;;;;;;11.18;47.72;100829.98;104877;1264;74181;-60
2023/03/17 10:23:12;;;;;;;10.10;5.80;;;;;;;11.43;47.88;100825.80;104897;1265;83334;-60
2023/03/17 10:25:49;;;;;;;9.10;5.70;;;;;;;11.59;47.16;100820.55;104916;1265;72885;-64
2023/03/17 10:28:37;;;;;;;10.70;4.80;;;;;;;11.50;46.53;100808.96;104918;1266;69335;-59
2023/03/17 10:31:34;;;;;;;10.60;5.40;;;;;;;11.24;46.53;100808.42;104870;1264;69345;-60
2023/03/17 10:34:32;;;;;;;12.30;5.00;;;;;;;11.00;46.31;100811.14;104883;1267;72789;-63
2023/03/17 10:37:14;;;;;;;9.50;5.20;;;;;;;10.76;46.09;100806.66;104879;1267;83519;-59
2023/03/17 10:39:58;;;;;;;10.20;5.40;;;;;;;10.83;46.66;100809.41;104775;1266;73876;-60
2023/03/17 10:42:31;;;;;;;10.80;5.70;;;;;;;11.04;46.47;100808.77;104886;1262;69114;-60
2023/03/17 10:45:31;;;;;;;13.40;6.60;;;;;;;11.30;46.38;100806.52;104986;1266;69199;-62
2023/03/17 10:48:08;;;;;;;10.00;6.30;;;;;;;11.74;46.35;100807.42;105466;1257;74105;-59
2023/03/17 10:50:39;;;;;;;10.40;5.80;;;;;;;12.09;46.03;100798.12;105432;1257;82955;-62
2023/03/17 10:53:18;;;;;;;9.80;5.30;;;;;;;12.36;45.83;100788.02;105433;1253;73622;-61
2023/03/17 10:55:51;;;;;;;10.00;5.40;;;;;;;12.64;45.85;100783.59;105451;1254;69141;-59
2023/03/17 10:58:38;;;;;;;8.70;4.90;;;;;;;13.01;45.22;100781.59;105422;1257;69295;-60
2023/03/17 11:01:18;;;;;;;12.20;5.20;;;;;;;13.32;45.05;100776.62;105441;1254;74103;-60
2023/03/17 11:03:50;;;;;;;10.60;5.40;;;;;;;13.49;44.45;100769.09;105434;1253;82152;-62
2023/03/17 11:06:40;;;;;;;8.40;5.80;;;;;;;13.63;44.56;100766.52;105488;1257;72755;-63
2023/03/17 11:09:11;;;;;;;;;;;;;;;13.51;43.75;100758.77;105490;1253;69125;-61
2023/03/17 11:11:47;;;;;;;;;;;;;;;13.36;43.81;100754.38;105355;1254;69182;-63
2023/03/17 11:14:19;;;;;;;11.90;5.70;;;;;;;13.24;43.77;100745.55;105440;1253;73006;-60
2023/03/17 11:16:52;;;;;;;17.50;8.70;;;;;;;13.35;43.82;100740.73;105430;1257;83340;-61
2023/03/17 11:19:59;;;;;;;9.60;5.30;;;;;;;13.41;43.53;100744.48;105413;1254;73885;-60
2023/03/17 11:22:40;;;;;;;8.30;5.40;;;;;;;13.34;43.12;100727.74;105123;1254;69137;-61
2023/03/17 11:25:15;;;;;;;9.80;5.20;;;;;;;13.11;43.14;100722.73;105458;1257;69241;-62
2023/03/17 11:27:48;;;;;;;8.70;5.50;;;;;;;13.12;43.09;100721.10;105506;1256;73390;-63
2023/03/17 11:30:39;;;;;;;8.60;5.60;;;;;;;13.19;42.65;100731.70;105350;1254;83917;-62
2023/03/17 11:33:39;;;;;;;9.40;5.50;;;;;;;13.27;42.30;100739.84;105486;1258;72748;-61
2023/03/17 11:36:39;;;;;;;9.00;5.50;;;;;;;13.41;42.35;100722.89;105387;1254;69196;-59
2023/03/17 11:39:38;;;;;;;9.80;5.20;;;;;;;13.63;42.02;100724.94;105474;1258;69182;-60
2023/03/17 11:42:17;;;;;;;11.30;5.40;;;;;;;13.84;41.98;100729.08;105493;1254;73059;-61
2023/03/17 11:44:55;;;;;;;10.00;4.80;;;;;;;13.92;42.05;100727.27;105496;1254;82525;-60
2023/03/17 11:47:36;;;;;;;8.70;4.80;;;;;;;13.91;41.38;100731.90;105442;1257;73605;-61
2023/03/17 11:50:33;;;;;;;8.90;5.10;;;;;;;13.81;41.31;100726.74;105344;1259;69128;-61
2023/03/17 11:53:38;;;;;;;9.80;4.50;;;;;;;13.91;41.56;100713.44;105457;1254;69298;-59
2023/03/17 11:56:14;;;;;;;7.20;4.70;;;;;;;14.27;41.40;100705.30;105453;1253;74189;-59
2023/03/17 11:58:44;;;;;;;7.30;4.30;;;;;;;14.43;41.22;100700.48;105473;1253;82866;-64
2023/03/17 12:01:26;;;;;;;7.10;4.50;;;;;;;14.64;40.75;100703.02;105476;1254;73738;-60
2023/03/17 12:04:21;;;;;;;7.50;4.50;;;;;;;14.73;40.47;100694.11;105495;1254;69445;-57
2023/03/17 12:06:56;;;;;;;8.90;4.70;;;;;;;14.90;40.11;100696.59;105475;1255;69163;-59
2023/03/17 12:09:37;;;;;;;9.80;4.80;;;;;;;15.05;40.14;100704.32;105388;1253;73160;-55
2023/03/17 12:12:07;;;;;;;6.20;4.10;;;;;;;15.23;39.43;100707.82;105450;1254;83578;-56
2023/03/17 12:14:45;;;;;;;9.30;4.70;;;;;;;15.14;39.21;100699.93;105361;1253;71836;-57
2023/03/17 12:17:34;;;;;;;8.40;4.50;;;;;;;15.18;39.00;100699.75;105365;1253;69099;-57
2023/03/17 12:20:17;;;;;;;7.60;4.50;;;;;;;15.45;39.54;100689.92;105462;1254;69007;-56
2023/03/17 12:23:06;;;;;;;8.60;4.60;;;;;;;15.74;39.06;100679.55;105450;1254;74252;-55
2023/03/17 12:25:53;;;;;;;6.30;4.00;;;;;;;15.78;38.59;100677.61;105335;1253;83567;-58
2023/03/17 12:28:41;;;;;;;11.10;5.00;;;;;;;15.74;38.31;100680.14;105255;1259;72794;-58
2023/03/17 12:31:21;;;;;;;6.10;3.90;;;;;;;15.59;37.65;100674.94;105428;1254;69095;-57
2023/03/17 12:34:05;;;;;;;7.40;4.20;;;;;;;15.41;38.01;100677.80;105398;1254;69168;-56
2023/03/17 12:36:35;;;;;;;7.20;4.10;;;;;;;15.43;38.02;100683.68;105437;1253;74100;-58
2023/03/17 12:39:17;;;;;;;8.80;4.50;;;;;;;15.52;37.91;100690.63;105690;1254;83073;-56
2023/03/17 12:42:04;;;;;;;7.20;4.50;;;;;;;15.56;37.95;100681.40;105901;1254;72819;-58
2023/03/17 12:44:35;;;;;;;6.80;4.40;;;;;;;15.71;37.91;100682.92;105620;1254;69205;-58
2023/03/17 12:47:22;;;;;;;7.40;4.60;;;;;;;15.92;37.75;100678.44;105424;1257;69241;-58
2023/03/17 12:50:42;;;;;;;7.50;4.30;;;;;;;16.13;37.65;100669.89;105510;1254;74343;-58
2023/03/17 12:53:25;;;;;;;5.70;4.10;;;;;;;16.48;37.69;100664.70;105040;1254;82295;-58
2023/03/17 12:55:56;;;;;;;6.20;4.40;;;;;;;16.74;37.08;100661.48;105524;1254;73950;-57
2023/03/17 12:58:39;;;;;;;7.40;4.40;;;;;;;16.94;37.50;100666.45;105441;1257;69134;-57
2023/03/17 13:01:19;;;;;;;6.80;4.20;;;;;;;17.00;36.73;100663.50;105440;1254;69500;-57
2023/03/17 13:03:59;;;;;;;7.80;4.30;;;;;;;16.78;36.42;100662.98;105530;1253;74010;-57
2023/03/17 13:06:37;;;;;;;6.90;4.30;;;;;;;16.52;36.43;100658.46;105499;1253;82493;-56
2023/03/17 13:09:27;;;;;;;7.00;4.30;;;;;;;16.35;36.28;100659.13;105406;1253;72791;-56
2023/03/17 13:12:00;;;;;;;6.80;4.40;;;;;;;16.25;36.18;100651.02;105446;1254;69131;-57
2023/03/17 13:14:50;;;;;;;4.80;3.90;;;;;;;16.09;35.93;100642.59;105501;1253;69541;-57
2023/03/17 13:17:23;;;;;;;6.50;4.10;;;;;;;16.03;36.19;100640.82;105550;1257;73029;-57
2023/03/17 13:20:07;;;;;;;8.50;4.40;;;;;;;16.01;36.67;100636.71;105594;1257;82491;-57
2023/03/17 13:23:02;;;;;;;7.10;4.50;;;;;;;16.23;36.67;100629.83;105428;1253;71724;-57
2023/03/17 13:25:38;;;;;;;7.90;4.60;;;;;;;16.27;36.26;100629.05;105655;1253;69144;-57
2023/03/17 13:28:12;;;;;;;15.20;9.00;;;;;;;16.22;35.96;100625.48;105487;1254;69105;-57
2023/03/17 13:30:40;;;;;;;41.00;24.30;;;;;;;16.31;36.20;100624.62;105639;1253;73989;-57
2023/03/17 13:33:09;;;;;;;21.00;13.30;;;;;;;16.56;36.37;100624.77;105440;1257;83416;-56
2023/03/17 13:35:41;;;;;;;20.30;12.10;;;;;;;16.69;36.34;100620.98;105665;1254;73696;-58
2023/03/17 13:38:35;;;;;;;27.80;13.10;;;;;;;16.74;36.25;100624.39;105609;1253;69180;-57
2023/03/17 13:41:28;;;;;;;82.80;39.30;;;;;;;16.74;35.88;100624.39;105493;1257;69234;-57
2023/03/17 13:44:34;;;;;;;33.20;16.90;;;;;;;16.81;36.00;100629.30;105374;1259;73105;-56
2023/03/17 13:47:21;;;;;;;17.60;8.90;;;;;;;16.76;35.38;100629.23;105487;1253;82622;-58
2023/03/17 13:49:55;;;;;;;64.10;29.50;;;;;;;16.57;35.43;100634.72;105571;1257;73094;-58
2023/03/17 13:52:38;;;;;;;62.90;30.50;;;;;;;16.47;35.43;100633.16;105590;1259;69257;-56
2023/03/17 13:55:22;;;;;;;10.00;6.80;;;;;;;16.35;35.33;100628.62;105700;1254;69077;-57
2023/03/17 13:58:06;;;;;;;46.70;24.70;;;;;;;16.28;35.53;100621.96;105689;1254;73965;-54
2023/03/17 14:00:41;;;;;;;29.00;15.10;;;;;;;16.39;35.51;100622.23;105510;1253;82050;-55
2023/03/17 14:03:10;;;;;;;14.90;9.70;;;;;;;16.35;35.21;100621.22;105571;1257;73937;-56
2023/03/17 14:05:40;;;;;;;16.50;10.50;;;;;;;16.32;35.23;100622.81;105649;1254;69227;-57
2023/03/17 14:08:31;;;;;;;9.50;6.50;;;;;;;16.34;35.28;100616.16;105583;1253;69173;-55
2023/03/17 14:11:02;;;;;;;7.70;4.90;;;;;;;16.31;34.98;100610.33;105478;1253;73260;-56
2023/03/17 14:13:47;;;;;;;6.90;4.40;;;;;;;16.24;35.03;100600.11;105532;1254;83373;-54
2023/03/17 14:16:23;;;;;;;7.30;4.60;;;;;;;16.30;35.23;100595.40;105482;1253;71760;-56
2023/03/17 14:18:58;;;;;;;10.10;6.60;;;;;;;16.38;35.56;100592.27;105561;1257;69168;-55
2023/03/17 14:21:33;;;;;;;6.10;4.50;;;;;;;16.54;35.28;100586.73;105581;1255;69306;-57
2023/03/17 14:24:11;;;;;;;6.80;3.90;;;;;;;16.66;34.93;100580.39;105470;1257;72904;-55
2023/03/17 14:26:39;;;;;;;7.00;3.80;;;;;;;16.60;34.54;100577.92;105489;1253;82483;-57
2023/03/17 14:29:12;;;;;;;5.40;3.80;;;;;;;16.55;34.62;100581.76;105476;1254;73886;-57
2023/03/17 14:31:41;;;;;;;4.70;3.50;;;;;;;16.72;34.91;100572.98;105602;1253;69561;-55
2023/03/17 14:34:14;;;;;;;6.40;4.30;;;;;;;17.10;34.74;100568.60;105487;1257;69228;-55
2023/03/17 14:36:43;;;;;;;7.70;4.20;;;;;;;17.26;34.29;100561.06;105441;1253;74173;-57
2023/03/17 14:39:23;;;;;;;7.70;4.10;;;;;;;17.31;33.96;100561.47;105551;1257;83959;-57
2023/03/17 14:42:03;;;;;;;6.40;3.90;;;;;;;17.28;33.54;100557.94;105568;1253;72805;-56
2023/03/17 14:44:37;;;;;;;6.70;4.10;;;;;;;17.43;33.77;100561.98;105562;1255;69170;-56
2023/03/17 14:47:13;;;;;;;6.80;4.10;;;;;;;17.66;33.64;100563.65;105526;1259;69127;-58
2023/03/17 14:49:41;;;;;;;6.00;4.30;;;;;;;17.80;33.38;100561.59;105515;1254;73122;-57
2023/03/17 14:52:40;;;;;;;5.70;4.00;;;;;;;17.73;32.97;100562.32;105488;1254;82430;-55
2023/03/17 14:55:13;;;;;;;6.40;4.40;;;;;;;17.68;32.85;100556.52;105536;1254;73192;-57
2023/03/17 14:57:46;;;;;;;13.80;4.80;;;;;;;17.56;32.74;100549.63;105543;1254;69210;-56
2023/03/17 15:00:36;;;;;;;9.40;6.40;;;;;;;17.28;32.70;100547.52;105716;1254;69202;-56
2023/03/17 15:03:18;;;;;;;;;;;;;;;17.19;33.03;100542.59;105542;1254;73754;-56
2023/03/17 15:05:48;;;;;;;31.10;20.80;;;;;;;16.97;33.01;100539.71;105712;1256;83541;-57
2023/03/17 15:08:46;;;;;;;19.00;13.60;;;;;;;16.84;32.96;100547.42;105440;1259;73733;-59
2023/03/17 15:11:39;;;;;;;28.00;18.00;;;;;;;16.62;33.07;100544.14;105598;1257;69325;-57
2023/03/17 15:14:17;;;;;;;20.40;12.00;;;;;;;16.38;33.15;100539.02;105648;1254;69078;-56
2023/03/17 15:16:51;;;;;;;13.90;7.80;;;;;;;16.16;33.24;100541.04;105571;1259;73127;-55
2023/03/17 15:19:21;;;;;;;8.10;5.60;;;;;;;15.94;33.23;100541.02;105784;1256;83578;-58
2023/03/17 15:21:50;;;;;;;10.30;7.30;;;;;;;15.82;33.38;100538.21;105540;1254;73873;-57
2023/03/17 15:24:35;;;;;;;16.50;5.90;;;;;;;15.73;33.54;100533.08;105523;1254;69093;-57
2023/03/17 15:27:16;;;;;;;27.40;19.00;;;;;;;15.61;33.42;100535.27;105588;1254;69094;-53
2023/03/17 15:29:46;;;;;;;8.60;6.10;;;;;;;15.44;33.53;100536.98;105486;1254;74204;-53
2023/03/17 15:32:19;;;;;;;19.20;12.90;;;;;;;15.28;33.77;100534.98;105314;1254;83297;-54
2023/03/17 15:34:50;;;;;;;29.40;17.60;;;;;;;15.10;33.97;100541.23;105254;1253;74495;-54
2023/03/17 15:37:30;;;;;;;20.80;10.90;;;;;;;14.93;34.12;100544.09;105431;1256;69173;-51
2023/03/17 15:40:00;;;;;;;13.20;8.90;;;;;;;14.72;34.46;100543.81;105657;1257;69991;-53
2023/03/17 15:42:31;;;;;;;12.50;7.30;;;;;;;14.53;34.52;100547.70;105615;1253;74262;-62
2023/03/17 15:45:02;;;;;;;18.10;10.60;;;;;;;14.31;34.53;100547.77;105707;1253;83359;-59